sensor_id;sensor_type;location;lat;lon;timestamp;temperature;humidity
33827;DHT22;20128;45.582;5.298;2022-09-28T00:01:22;17.50;64.00
33827;DHT22;20128;45.582;5.298;2022-09-28T00:03:50;17.40;64.30
33827;DHT22;20128;45.582;5.298;2022-09-28T00:06:19;17.40;64.30
33827;DHT22;20128;45.582;5.298;2022-09-28T00:08:45;17.40;64.40
33827;DHT22;20128;45.582;5.298;2022-09-28T00:11:12;17.30;64.50
33827;DHT22;20128;45.582;5.298;2022-09-28T00:13:40;17.30;64.70
33827;DHT22;20128;45.582;5.298;2022-09-28T00:16:13;17.30;64.80
33827;DHT22;20128;45.582;5.298;2022-09-28T00:18:40;17.30;64.80
33827;DHT22;20128;45.582;5.298;2022-09-28T00:21:17;17.30;64.60
33827;DHT22;20128;45.582;5.298;2022-09-28T00:23:43;17.20;65.40
33827;DHT22;20128;45.582;5.298;2022-09-28T00:26:29;17.20;64.80
33827;DHT22;20128;45.582;5.298;2022-09-28T00:28:57;17.30;65.00
33827;DHT22;20128;45.582;5.298;2022-09-28T00:31:24;17.30;65.00
33827;DHT22;20128;45.582;5.298;2022-09-28T00:33:51;17.20;64.70
33827;DHT22;20128;45.582;5.298;2022-09-28T00:36:18;17.20;64.50
33827;DHT22;20128;45.582;5.298;2022-09-28T00:38:43;17.10;64.50
33827;DHT22;20128;45.582;5.298;2022-09-28T00:41:12;17.00;64.20
33827;DHT22;20128;45.582;5.298;2022-09-28T00:43:38;16.80;64.20
33827;DHT22;20128;45.582;5.298;2022-09-28T00:48:57;16.20;64.90
33827;DHT22;20128;45.582;5.298;2022-09-28T00:51:24;16.10;65.90
33827;DHT22;20128;45.582;5.298;2022-09-28T00:53:51;16.30;66.30
33827;DHT22;20128;45.582;5.298;2022-09-28T00:56:20;16.50;66.10
33827;DHT22;20128;45.582;5.298;2022-09-28T00:58:50;16.60;66.20
33827;DHT22;20128;45.582;5.298;2022-09-28T01:01:17;16.70;65.60
33827;DHT22;20128;45.582;5.298;2022-09-28T01:03:43;16.70;66.00
33827;DHT22;20128;45.582;5.298;2022-09-28T01:06:17;16.50;65.60
33827;DHT22;20128;45.582;5.298;2022-09-28T01:08:44;16.40;66.20
33827;DHT22;20128;45.582;5.298;2022-09-28T01:11:11;16.30;66.40
33827;DHT22;20128;45.582;5.298;2022-09-28T01:13:38;16.20;66.70
33827;DHT22;20128;45.582;5.298;2022-09-28T01:27:27;15.60;68.50
33827;DHT22;20128;45.582;5.298;2022-09-28T01:30:08;15.60;68.90
33827;DHT22;20128;45.582;5.298;2022-09-28T01:35:28;15.40;68.60
33827;DHT22;20128;45.582;5.298;2022-09-28T01:38:05;15.30;68.60
33827;DHT22;20128;45.582;5.298;2022-09-28T01:40:31;15.30;69.00
33827;DHT22;20128;45.582;5.298;2022-09-28T01:43:17;15.30;68.80
33827;DHT22;20128;45.582;5.298;2022-09-28T01:45:51;15.40;68.80
33827;DHT22;20128;45.582;5.298;2022-09-28T01:48:31;15.40;68.80
33827;DHT22;20128;45.582;5.298;2022-09-28T01:51:00;15.50;68.70
33827;DHT22;20128;45.582;5.298;2022-09-28T01:53:32;15.50;69.10
33827;DHT22;20128;45.582;5.298;2022-09-28T01:56:08;15.60;68.60
33827;DHT22;20128;45.582;5.298;2022-09-28T02:01:28;15.70;69.40
33827;DHT22;20128;45.582;5.298;2022-09-28T02:04:17;15.70;68.80
33827;DHT22;20128;45.582;5.298;2022-09-28T02:06:55;15.80;68.00
33827;DHT22;20128;45.582;5.298;2022-09-28T02:09:32;15.70;68.00
33827;DHT22;20128;45.582;5.298;2022-09-28T02:12:04;15.80;68.20
33827;DHT22;20128;45.582;5.298;2022-09-28T02:14:34;15.70;68.80
33827;DHT22;20128;45.582;5.298;2022-09-28T02:17:00;15.80;69.80
33827;DHT22;20128;45.582;5.298;2022-09-28T02:19:27;15.90;69.50
33827;DHT22;20128;45.582;5.298;2022-09-28T02:27:13;16.00;67.90
33827;DHT22;20128;45.582;5.298;2022-09-28T02:29:40;16.00;67.40
33827;DHT22;20128;45.582;5.298;2022-09-28T02:32:05;16.00;68.20
33827;DHT22;20128;45.582;5.298;2022-09-28T02:34:31;16.00;67.70
33827;DHT22;20128;45.582;5.298;2022-09-28T02:36:58;16.00;67.40
33827;DHT22;20128;45.582;5.298;2022-09-28T02:39:24;16.00;67.10
33827;DHT22;20128;45.582;5.298;2022-09-28T02:42:00;16.00;66.50
33827;DHT22;20128;45.582;5.298;2022-09-28T02:45:33;15.90;67.00
33827;DHT22;20128;45.582;5.298;2022-09-28T02:47:49;16.00;67.60
33827;DHT22;20128;45.582;5.298;2022-09-28T02:59:03;16.00;66.30
33827;DHT22;20128;45.582;5.298;2022-09-28T03:04:28;16.00;66.70
33827;DHT22;20128;45.582;5.298;2022-09-28T03:09:58;16.00;66.40
33827;DHT22;20128;45.582;5.298;2022-09-28T03:12:26;16.10;67.00
33827;DHT22;20128;45.582;5.298;2022-09-28T03:17:45;16.10;66.60
33827;DHT22;20128;45.582;5.298;2022-09-28T03:20:11;16.20;66.10
33827;DHT22;20128;45.582;5.298;2022-09-28T03:22:37;16.20;66.30
33827;DHT22;20128;45.582;5.298;2022-09-28T03:25:04;16.30;66.20
33827;DHT22;20128;45.582;5.298;2022-09-28T03:27:30;16.30;65.60
33827;DHT22;20128;45.582;5.298;2022-09-28T03:29:55;16.30;65.30
33827;DHT22;20128;45.582;5.298;2022-09-28T03:32:21;16.30;65.50
33827;DHT22;20128;45.582;5.298;2022-09-28T03:34:46;16.20;65.30
33827;DHT22;20128;45.582;5.298;2022-09-28T03:37:12;16.10;65.10
33827;DHT22;20128;45.582;5.298;2022-09-28T03:39:37;16.00;65.40
33827;DHT22;20128;45.582;5.298;2022-09-28T03:42:04;16.00;65.50
33827;DHT22;20128;45.582;5.298;2022-09-28T03:44:29;16.00;65.60
33827;DHT22;20128;45.582;5.298;2022-09-28T03:46:55;15.90;65.50
33827;DHT22;20128;45.582;5.298;2022-09-28T03:49:21;15.90;65.60
33827;DHT22;20128;45.582;5.298;2022-09-28T03:51:46;15.80;65.80
33827;DHT22;20128;45.582;5.298;2022-09-28T03:54:12;15.80;65.60
33827;DHT22;20128;45.582;5.298;2022-09-28T03:56:38;15.80;66.30
33827;DHT22;20128;45.582;5.298;2022-09-28T03:59:04;15.90;66.00
33827;DHT22;20128;45.582;5.298;2022-09-28T04:01:30;15.90;66.00
33827;DHT22;20128;45.582;5.298;2022-09-28T04:03:55;15.90;66.10
33827;DHT22;20128;45.582;5.298;2022-09-28T04:06:22;16.00;66.30
33827;DHT22;20128;45.582;5.298;2022-09-28T04:08:48;16.00;66.30
33827;DHT22;20128;45.582;5.298;2022-09-28T04:11:14;15.90;66.90
33827;DHT22;20128;45.582;5.298;2022-09-28T04:13:40;15.90;66.80
33827;DHT22;20128;45.582;5.298;2022-09-28T04:16:05;15.90;66.60
33827;DHT22;20128;45.582;5.298;2022-09-28T04:18:31;15.90;66.70
33827;DHT22;20128;45.582;5.298;2022-09-28T04:21:09;15.90;67.00
33827;DHT22;20128;45.582;5.298;2022-09-28T04:23:37;15.90;66.80
33827;DHT22;20128;45.582;5.298;2022-09-28T04:26:04;16.00;66.80
33827;DHT22;20128;45.582;5.298;2022-09-28T04:28:30;16.00;66.50
33827;DHT22;20128;45.582;5.298;2022-09-28T04:31:17;16.00;66.20
33827;DHT22;20128;45.582;5.298;2022-09-28T04:33:43;16.00;66.50
33827;DHT22;20128;45.582;5.298;2022-09-28T04:36:09;16.00;66.60
33827;DHT22;20128;45.582;5.298;2022-09-28T04:38:36;16.00;67.10
33827;DHT22;20128;45.582;5.298;2022-09-28T04:41:02;16.00;67.20
33827;DHT22;20128;45.582;5.298;2022-09-28T04:43:28;15.90;67.70
33827;DHT22;20128;45.582;5.298;2022-09-28T04:46:00;15.90;68.00
33827;DHT22;20128;45.582;5.298;2022-09-28T04:48:28;15.80;68.30
33827;DHT22;20128;45.582;5.298;2022-09-28T04:50:55;15.80;68.20
33827;DHT22;20128;45.582;5.298;2022-09-28T04:53:21;15.80;68.90
33827;DHT22;20128;45.582;5.298;2022-09-28T04:58:24;15.60;69.00
33827;DHT22;20128;45.582;5.298;2022-09-28T05:00:51;15.60;69.40
33827;DHT22;20128;45.582;5.298;2022-09-28T05:03:18;15.60;70.30
33827;DHT22;20128;45.582;5.298;2022-09-28T05:05:44;15.60;70.20
33827;DHT22;20128;45.582;5.298;2022-09-28T05:08:10;15.60;70.00
33827;DHT22;20128;45.582;5.298;2022-09-28T05:10:36;15.70;70.00
33827;DHT22;20128;45.582;5.298;2022-09-28T05:13:08;15.70;69.70
33827;DHT22;20128;45.582;5.298;2022-09-28T05:15:35;15.70;70.00
33827;DHT22;20128;45.582;5.298;2022-09-28T05:18:01;15.70;70.00
33827;DHT22;20128;45.582;5.298;2022-09-28T05:20:27;15.70;70.10
33827;DHT22;20128;45.582;5.298;2022-09-28T05:22:52;15.80;70.00
33827;DHT22;20128;45.582;5.298;2022-09-28T05:25:18;15.80;69.80
33827;DHT22;20128;45.582;5.298;2022-09-28T05:27:44;15.80;69.80
33827;DHT22;20128;45.582;5.298;2022-09-28T05:30:10;15.70;70.00
33827;DHT22;20128;45.582;5.298;2022-09-28T05:32:45;15.60;70.50
33827;DHT22;20128;45.582;5.298;2022-09-28T05:35:10;15.50;70.70
33827;DHT22;20128;45.582;5.298;2022-09-28T05:37:37;15.40;71.50
33827;DHT22;20128;45.582;5.298;2022-09-28T05:40:03;15.40;71.10
33827;DHT22;20128;45.582;5.298;2022-09-28T05:42:30;15.40;71.40
33827;DHT22;20128;45.582;5.298;2022-09-28T05:44:55;15.40;71.60
33827;DHT22;20128;45.582;5.298;2022-09-28T05:47:25;15.40;71.40
33827;DHT22;20128;45.582;5.298;2022-09-28T05:49:52;15.40;71.40
33827;DHT22;20128;45.582;5.298;2022-09-28T05:52:18;15.40;72.10
33827;DHT22;20128;45.582;5.298;2022-09-28T05:54:44;15.40;71.70
33827;DHT22;20128;45.582;5.298;2022-09-28T05:57:10;15.40;71.60
33827;DHT22;20128;45.582;5.298;2022-09-28T05:59:36;15.40;71.50
33827;DHT22;20128;45.582;5.298;2022-09-28T06:02:03;15.40;71.30
33827;DHT22;20128;45.582;5.298;2022-09-28T06:04:29;15.40;71.30
33827;DHT22;20128;45.582;5.298;2022-09-28T06:06:55;15.40;71.20
33827;DHT22;20128;45.582;5.298;2022-09-28T06:09:21;15.40;71.10
33827;DHT22;20128;45.582;5.298;2022-09-28T06:11:49;15.40;71.00
33827;DHT22;20128;45.582;5.298;2022-09-28T06:14:15;15.40;70.90
33827;DHT22;20128;45.582;5.298;2022-09-28T06:16:41;15.40;71.10
33827;DHT22;20128;45.582;5.298;2022-09-28T06:19:07;15.50;71.50
33827;DHT22;20128;45.582;5.298;2022-09-28T06:21:33;15.50;71.00
33827;DHT22;20128;45.582;5.298;2022-09-28T06:23:59;15.60;71.00
33827;DHT22;20128;45.582;5.298;2022-09-28T06:26:25;15.60;71.00
33827;DHT22;20128;45.582;5.298;2022-09-28T06:28:51;15.60;71.10
33827;DHT22;20128;45.582;5.298;2022-09-28T06:31:16;15.60;71.10
33827;DHT22;20128;45.582;5.298;2022-09-28T06:33:48;15.70;70.90
33827;DHT22;20128;45.582;5.298;2022-09-28T06:36:15;15.70;70.80
33827;DHT22;20128;45.582;5.298;2022-09-28T06:38:41;15.70;70.80
33827;DHT22;20128;45.582;5.298;2022-09-28T06:41:07;15.80;70.50
33827;DHT22;20128;45.582;5.298;2022-09-28T06:43:33;15.70;70.50
33827;DHT22;20128;45.582;5.298;2022-09-28T06:46:00;15.80;70.30
33827;DHT22;20128;45.582;5.298;2022-09-28T06:48:26;15.80;70.20
33827;DHT22;20128;45.582;5.298;2022-09-28T06:50:52;15.80;70.00
33827;DHT22;20128;45.582;5.298;2022-09-28T06:53:18;15.80;69.90
33827;DHT22;20128;45.582;5.298;2022-09-28T06:55:45;15.80;70.10
33827;DHT22;20128;45.582;5.298;2022-09-28T06:58:16;15.80;70.30
33827;DHT22;20128;45.582;5.298;2022-09-28T07:00:42;15.80;70.00
33827;DHT22;20128;45.582;5.298;2022-09-28T07:03:16;15.90;70.40
33827;DHT22;20128;45.582;5.298;2022-09-28T07:05:44;15.90;70.30
33827;DHT22;20128;45.582;5.298;2022-09-28T07:08:10;15.90;70.30
33827;DHT22;20128;45.582;5.298;2022-09-28T07:10:46;15.90;70.30
33827;DHT22;20128;45.582;5.298;2022-09-28T07:13:13;15.90;70.50
33827;DHT22;20128;45.582;5.298;2022-09-28T07:15:39;16.00;70.30
33827;DHT22;20128;45.582;5.298;2022-09-28T07:18:06;16.00;70.20
33827;DHT22;20128;45.582;5.298;2022-09-28T07:20:34;16.00;70.30
33827;DHT22;20128;45.582;5.298;2022-09-28T07:23:01;16.00;70.50
33827;DHT22;20128;45.582;5.298;2022-09-28T07:25:28;16.00;70.50
33827;DHT22;20128;45.582;5.298;2022-09-28T07:28:04;16.10;70.40
33827;DHT22;20128;45.582;5.298;2022-09-28T07:30:32;16.10;70.40
33827;DHT22;20128;45.582;5.298;2022-09-28T07:32:59;16.10;70.20
33827;DHT22;20128;45.582;5.298;2022-09-28T07:35:25;16.10;70.10
33827;DHT22;20128;45.582;5.298;2022-09-28T07:38:01;16.20;70.80
33827;DHT22;20128;45.582;5.298;2022-09-28T07:40:28;16.20;70.50
33827;DHT22;20128;45.582;5.298;2022-09-28T07:43:13;16.20;70.50
33827;DHT22;20128;45.582;5.298;2022-09-28T07:45:41;16.30;70.10
33827;DHT22;20128;45.582;5.298;2022-09-28T07:48:07;16.30;70.30
33827;DHT22;20128;45.582;5.298;2022-09-28T07:50:33;16.30;70.40
33827;DHT22;20128;45.582;5.298;2022-09-28T07:52:59;16.30;70.40
33827;DHT22;20128;45.582;5.298;2022-09-28T07:55:25;16.30;70.30
33827;DHT22;20128;45.582;5.298;2022-09-28T07:57:57;16.40;70.60
33827;DHT22;20128;45.582;5.298;2022-09-28T08:00:29;16.40;70.60
33827;DHT22;20128;45.582;5.298;2022-09-28T08:03:03;16.40;70.70
33827;DHT22;20128;45.582;5.298;2022-09-28T08:05:29;16.40;70.70
33827;DHT22;20128;45.582;5.298;2022-09-28T08:07:55;16.40;70.70
33827;DHT22;20128;45.582;5.298;2022-09-28T08:10:26;16.40;70.60
33827;DHT22;20128;45.582;5.298;2022-09-28T08:12:53;16.40;70.40
33827;DHT22;20128;45.582;5.298;2022-09-28T08:15:19;16.40;70.80
33827;DHT22;20128;45.582;5.298;2022-09-28T08:17:49;16.40;70.80
33827;DHT22;20128;45.582;5.298;2022-09-28T08:20:15;16.40;70.90
33827;DHT22;20128;45.582;5.298;2022-09-28T08:23:03;16.40;70.90
33827;DHT22;20128;45.582;5.298;2022-09-28T08:25:29;16.50;71.10
33827;DHT22;20128;45.582;5.298;2022-09-28T08:27:55;16.50;71.10
33827;DHT22;20128;45.582;5.298;2022-09-28T08:30:21;16.50;71.00
33827;DHT22;20128;45.582;5.298;2022-09-28T08:32:47;16.50;71.30
33827;DHT22;20128;45.582;5.298;2022-09-28T08:35:15;16.50;71.50
33827;DHT22;20128;45.582;5.298;2022-09-28T08:37:41;16.50;72.40
33827;DHT22;20128;45.582;5.298;2022-09-28T08:40:20;16.50;72.20
33827;DHT22;20128;45.582;5.298;2022-09-28T08:42:49;16.50;72.50
33827;DHT22;20128;45.582;5.298;2022-09-28T08:45:26;16.60;72.40
33827;DHT22;20128;45.582;5.298;2022-09-28T08:48:10;16.60;72.40
33827;DHT22;20128;45.582;5.298;2022-09-28T08:51:05;16.60;72.50
33827;DHT22;20128;45.582;5.298;2022-09-28T08:53:38;16.70;73.00
33827;DHT22;20128;45.582;5.298;2022-09-28T08:56:16;16.80;72.30
33827;DHT22;20128;45.582;5.298;2022-09-28T08:58:44;16.80;72.40
33827;DHT22;20128;45.582;5.298;2022-09-28T09:01:15;16.90;72.10
33827;DHT22;20128;45.582;5.298;2022-09-28T09:03:43;16.90;71.90
33827;DHT22;20128;45.582;5.298;2022-09-28T09:18:05;17.30;71.30
33827;DHT22;20128;45.582;5.298;2022-09-28T09:23:19;17.60;71.40
33827;DHT22;20128;45.582;5.298;2022-09-28T09:25:55;17.70;70.30
33827;DHT22;20128;45.582;5.298;2022-09-28T09:39:32;17.90;70.30
33827;DHT22;20128;45.582;5.298;2022-09-28T09:47:07;18.10;70.20
33827;DHT22;20128;45.582;5.298;2022-09-28T09:49:38;18.10;68.90
33827;DHT22;20128;45.582;5.298;2022-09-28T09:52:23;18.10;68.60
33827;DHT22;20128;45.582;5.298;2022-09-28T09:54:58;18.10;68.60
33827;DHT22;20128;45.582;5.298;2022-09-28T09:57:31;18.10;68.50
33827;DHT22;20128;45.582;5.298;2022-09-28T09:59:59;18.10;68.30
33827;DHT22;20128;45.582;5.298;2022-09-28T10:02:31;18.00;68.70
33827;DHT22;20128;45.582;5.298;2022-09-28T10:05:03;18.00;68.40
33827;DHT22;20128;45.582;5.298;2022-09-28T10:10:01;18.00;68.20
33827;DHT22;20128;45.582;5.298;2022-09-28T10:12:27;17.90;67.90
33827;DHT22;20128;45.582;5.298;2022-09-28T10:14:56;17.90;68.20
33827;DHT22;20128;45.582;5.298;2022-09-28T10:17:21;17.90;68.20
33827;DHT22;20128;45.582;5.298;2022-09-28T10:19:52;17.80;68.20
33827;DHT22;20128;45.582;5.298;2022-09-28T10:22:22;17.80;68.10
33827;DHT22;20128;45.582;5.298;2022-09-28T10:24:50;17.90;68.80
33827;DHT22;20128;45.582;5.298;2022-09-28T10:27:29;17.90;68.80
33827;DHT22;20128;45.582;5.298;2022-09-28T10:29:59;17.90;68.20
33827;DHT22;20128;45.582;5.298;2022-09-28T10:32:38;18.00;68.60
33827;DHT22;20128;45.582;5.298;2022-09-28T10:37:50;18.10;68.80
33827;DHT22;20128;45.582;5.298;2022-09-28T10:40:48;18.10;68.50
33827;DHT22;20128;45.582;5.298;2022-09-28T10:43:25;18.20;68.30
33827;DHT22;20128;45.582;5.298;2022-09-28T10:46:12;18.30;68.60
33827;DHT22;20128;45.582;5.298;2022-09-28T10:51:10;18.40;68.20
33827;DHT22;20128;45.582;5.298;2022-09-28T10:53:36;18.40;68.50
33827;DHT22;20128;45.582;5.298;2022-09-28T10:58:39;18.40;67.80
33827;DHT22;20128;45.582;5.298;2022-09-28T11:01:09;18.40;68.00
33827;DHT22;20128;45.582;5.298;2022-09-28T11:03:51;18.40;68.00
33827;DHT22;20128;45.582;5.298;2022-09-28T11:06:30;18.40;67.90
33827;DHT22;20128;45.582;5.298;2022-09-28T11:08:59;18.40;67.20
33827;DHT22;20128;45.582;5.298;2022-09-28T11:11:26;18.50;67.40
33827;DHT22;20128;45.582;5.298;2022-09-28T11:13:56;18.50;67.70
33827;DHT22;20128;45.582;5.298;2022-09-28T11:16:30;18.50;67.80
33827;DHT22;20128;45.582;5.298;2022-09-28T11:19:02;18.50;67.70
33827;DHT22;20128;45.582;5.298;2022-09-28T11:21:30;18.60;67.70
33827;DHT22;20128;45.582;5.298;2022-09-28T11:24:16;18.60;67.50
33827;DHT22;20128;45.582;5.298;2022-09-28T11:26:47;18.70;66.90
33827;DHT22;20128;45.582;5.298;2022-09-28T11:31:51;18.70;67.80
33827;DHT22;20128;45.582;5.298;2022-09-28T11:34:23;18.90;67.40
33827;DHT22;20128;45.582;5.298;2022-09-28T11:37:27;19.00;66.80
33827;DHT22;20128;45.582;5.298;2022-09-28T11:48:43;19.30;65.50
33827;DHT22;20128;45.582;5.298;2022-09-28T11:51:30;19.30;65.70
33827;DHT22;20128;45.582;5.298;2022-09-28T11:54:11;19.40;65.00
33827;DHT22;20128;45.582;5.298;2022-09-28T11:56:48;19.40;65.60
33827;DHT22;20128;45.582;5.298;2022-09-28T11:59:30;19.50;65.90
33827;DHT22;20128;45.582;5.298;2022-09-28T12:07:37;19.90;63.10
33827;DHT22;20128;45.582;5.298;2022-09-28T12:12:46;20.00;63.50
33827;DHT22;20128;45.582;5.298;2022-09-28T12:15:58;20.10;62.50
33827;DHT22;20128;45.582;5.298;2022-09-28T12:18:19;20.10;61.60
33827;DHT22;20128;45.582;5.298;2022-09-28T12:23:40;20.10;61.20
33827;DHT22;20128;45.582;5.298;2022-09-28T12:26:45;20.10;61.60
33827;DHT22;20128;45.582;5.298;2022-09-28T12:29:43;20.20;61.20
33827;DHT22;20128;45.582;5.298;2022-09-28T12:34:45;20.30;61.00
33827;DHT22;20128;45.582;5.298;2022-09-28T12:37:28;20.40;60.30
33827;DHT22;20128;45.582;5.298;2022-09-28T12:45:31;20.50;61.10
33827;DHT22;20128;45.582;5.298;2022-09-28T12:50:46;20.40;60.80
33827;DHT22;20128;45.582;5.298;2022-09-28T12:58:46;20.30;60.30
33827;DHT22;20128;45.582;5.298;2022-09-28T13:09:23;20.10;61.80
33827;DHT22;20128;45.582;5.298;2022-09-28T13:12:45;20.00;62.90
33827;DHT22;20128;45.582;5.298;2022-09-28T13:23:56;19.80;66.60
33827;DHT22;20128;45.582;5.298;2022-09-28T13:26:37;19.80;67.00
33827;DHT22;20128;45.582;5.298;2022-09-28T13:29:11;19.70;67.20
33827;DHT22;20128;45.582;5.298;2022-09-28T13:34:17;19.60;69.60
33827;DHT22;20128;45.582;5.298;2022-09-28T13:36:45;19.60;71.70
33827;DHT22;20128;45.582;5.298;2022-09-28T13:39:35;19.50;71.60
33827;DHT22;20128;45.582;5.298;2022-09-28T13:42:02;19.40;72.10
33827;DHT22;20128;45.582;5.298;2022-09-28T13:50:31;19.10;75.00
33827;DHT22;20128;45.582;5.298;2022-09-28T14:20:33;18.10;77.70
33827;DHT22;20128;45.582;5.298;2022-09-28T14:23:08;18.00;77.90
33827;DHT22;20128;45.582;5.298;2022-09-28T14:25:45;17.90;77.70
33827;DHT22;20128;45.582;5.298;2022-09-28T14:31:07;17.80;77.30
33827;DHT22;20128;45.582;5.298;2022-09-28T14:33:35;17.70;76.40
33827;DHT22;20128;45.582;5.298;2022-09-28T14:36:06;17.60;76.40
33827;DHT22;20128;45.582;5.298;2022-09-28T14:39:03;17.70;76.60
33827;DHT22;20128;45.582;5.298;2022-09-28T14:41:48;17.70;76.60
33827;DHT22;20128;45.582;5.298;2022-09-28T14:44:14;17.70;76.40
33827;DHT22;20128;45.582;5.298;2022-09-28T14:46:46;17.70;76.50
33827;DHT22;20128;45.582;5.298;2022-09-28T14:54:20;17.80;76.20
33827;DHT22;20128;45.582;5.298;2022-09-28T14:59:39;17.80;76.30
33827;DHT22;20128;45.582;5.298;2022-09-28T15:02:14;17.80;76.30
33827;DHT22;20128;45.582;5.298;2022-09-28T15:07:27;17.70;76.50
33827;DHT22;20128;45.582;5.298;2022-09-28T15:09:58;17.70;76.50
33827;DHT22;20128;45.582;5.298;2022-09-28T15:12:26;17.70;76.80
33827;DHT22;20128;45.582;5.298;2022-09-28T15:15:01;17.70;77.20
33827;DHT22;20128;45.582;5.298;2022-09-28T15:17:38;17.60;76.70
33827;DHT22;20128;45.582;5.298;2022-09-28T15:20:29;17.40;77.00
33827;DHT22;20128;45.582;5.298;2022-09-28T15:22:58;17.40;77.70
33827;DHT22;20128;45.582;5.298;2022-09-28T15:25:28;17.40;77.50
33827;DHT22;20128;45.582;5.298;2022-09-28T15:28:15;17.40;77.60
33827;DHT22;20128;45.582;5.298;2022-09-28T15:30:41;17.40;77.90
33827;DHT22;20128;45.582;5.298;2022-09-28T15:33:29;17.40;77.90
33827;DHT22;20128;45.582;5.298;2022-09-28T15:38:52;17.40;78.40
33827;DHT22;20128;45.582;5.298;2022-09-28T15:41:19;17.50;78.90
33827;DHT22;20128;45.582;5.298;2022-09-28T15:46:32;17.50;78.60
33827;DHT22;20128;45.582;5.298;2022-09-28T15:49:02;17.50;78.30
33827;DHT22;20128;45.582;5.298;2022-09-28T15:51:31;17.50;79.10
33827;DHT22;20128;45.582;5.298;2022-09-28T15:54:16;17.60;79.30
33827;DHT22;20128;45.582;5.298;2022-09-28T15:57:04;17.50;78.90
33827;DHT22;20128;45.582;5.298;2022-09-28T15:59:31;17.50;79.00
33827;DHT22;20128;45.582;5.298;2022-09-28T16:02:17;17.40;79.00
33827;DHT22;20128;45.582;5.298;2022-09-28T16:04:48;17.50;79.10
33827;DHT22;20128;45.582;5.298;2022-09-28T16:17:54;17.40;79.60
33827;DHT22;20128;45.582;5.298;2022-09-28T16:22:48;17.40;80.10
33827;DHT22;20128;45.582;5.298;2022-09-28T16:25:19;17.50;80.00
33827;DHT22;20128;45.582;5.298;2022-09-28T16:27:49;17.50;80.10
33827;DHT22;20128;45.582;5.298;2022-09-28T16:30:28;17.50;80.00
33827;DHT22;20128;45.582;5.298;2022-09-28T16:32:56;17.40;80.00
33827;DHT22;20128;45.582;5.298;2022-09-28T16:35:25;17.40;80.30
33827;DHT22;20128;45.582;5.298;2022-09-28T16:38:04;17.40;80.40
33827;DHT22;20128;45.582;5.298;2022-09-28T16:40:34;17.30;80.50
33827;DHT22;20128;45.582;5.298;2022-09-28T16:43:04;17.40;80.40
33827;DHT22;20128;45.582;5.298;2022-09-28T16:45:30;17.40;80.50
33827;DHT22;20128;45.582;5.298;2022-09-28T16:47:57;17.30;80.40
33827;DHT22;20128;45.582;5.298;2022-09-28T16:50:24;17.30;80.50
33827;DHT22;20128;45.582;5.298;2022-09-28T16:53:12;17.20;80.70
33827;DHT22;20128;45.582;5.298;2022-09-28T16:55:57;17.30;80.80
33827;DHT22;20128;45.582;5.298;2022-09-28T16:58:24;17.30;80.40
33827;DHT22;20128;45.582;5.298;2022-09-28T17:00:50;17.30;80.20
33827;DHT22;20128;45.582;5.298;2022-09-28T17:03:16;17.30;80.20
33827;DHT22;20128;45.582;5.298;2022-09-28T17:05:46;17.20;80.40
33827;DHT22;20128;45.582;5.298;2022-09-28T17:08:14;17.10;80.60
33827;DHT22;20128;45.582;5.298;2022-09-28T17:10:57;17.20;80.60
33827;DHT22;20128;45.582;5.298;2022-09-28T17:13:29;17.20;80.60
33827;DHT22;20128;45.582;5.298;2022-09-28T17:16:10;17.20;80.50
33827;DHT22;20128;45.582;5.298;2022-09-28T17:18:36;17.20;80.50
33827;DHT22;20128;45.582;5.298;2022-09-28T17:21:06;17.20;80.50
33827;DHT22;20128;45.582;5.298;2022-09-28T17:23:32;17.20;80.70
33827;DHT22;20128;45.582;5.298;2022-09-28T17:25:59;17.20;80.70
33827;DHT22;20128;45.582;5.298;2022-09-28T17:28:31;17.30;80.50
33827;DHT22;20128;45.582;5.298;2022-09-28T17:30:57;17.20;80.70
33827;DHT22;20128;45.582;5.298;2022-09-28T17:33:23;17.10;80.80
33827;DHT22;20128;45.582;5.298;2022-09-28T17:35:51;17.10;80.90
33827;DHT22;20128;45.582;5.298;2022-09-28T17:38:17;17.00;81.10
33827;DHT22;20128;45.582;5.298;2022-09-28T17:40:43;16.90;81.00
33827;DHT22;20128;45.582;5.298;2022-09-28T17:43:10;16.90;80.90
33827;DHT22;20128;45.582;5.298;2022-09-28T17:45:36;16.90;80.80
33827;DHT22;20128;45.582;5.298;2022-09-28T17:48:13;16.90;80.50
33827;DHT22;20128;45.582;5.298;2022-09-28T17:50:43;16.90;80.40
33827;DHT22;20128;45.582;5.298;2022-09-28T17:53:10;16.90;80.30
33827;DHT22;20128;45.582;5.298;2022-09-28T17:55:37;16.80;79.80
33827;DHT22;20128;45.582;5.298;2022-09-28T17:58:21;16.80;79.80
33827;DHT22;20128;45.582;5.298;2022-09-28T18:00:49;16.80;80.10
33827;DHT22;20128;45.582;5.298;2022-09-28T18:03:17;16.80;80.00
33827;DHT22;20128;45.582;5.298;2022-09-28T18:05:45;16.70;80.00
33827;DHT22;20128;45.582;5.298;2022-09-28T18:08:17;16.60;79.90
33827;DHT22;20128;45.582;5.298;2022-09-28T18:10:43;16.60;80.20
33827;DHT22;20128;45.582;5.298;2022-09-28T18:13:10;16.70;79.70
33827;DHT22;20128;45.582;5.298;2022-09-28T18:15:36;16.60;79.40
33827;DHT22;20128;45.582;5.298;2022-09-28T18:18:01;16.50;79.50
33827;DHT22;20128;45.582;5.298;2022-09-28T18:20:27;16.50;79.90
33827;DHT22;20128;45.582;5.298;2022-09-28T18:22:54;16.40;80.10
33827;DHT22;20128;45.582;5.298;2022-09-28T18:25:19;16.30;80.10
33827;DHT22;20128;45.582;5.298;2022-09-28T18:27:45;16.30;80.40
33827;DHT22;20128;45.582;5.298;2022-09-28T18:30:11;16.40;80.80
33827;DHT22;20128;45.582;5.298;2022-09-28T18:32:36;16.30;81.00
33827;DHT22;20128;45.582;5.298;2022-09-28T18:35:04;16.30;81.30
33827;DHT22;20128;45.582;5.298;2022-09-28T18:37:30;16.40;81.30
33827;DHT22;20128;45.582;5.298;2022-09-28T18:40:00;16.50;81.30
33827;DHT22;20128;45.582;5.298;2022-09-28T18:42:26;16.50;81.30
33827;DHT22;20128;45.582;5.298;2022-09-28T18:44:52;16.60;81.00
33827;DHT22;20128;45.582;5.298;2022-09-28T18:47:17;16.70;80.80
33827;DHT22;20128;45.582;5.298;2022-09-28T18:49:43;16.70;80.60
33827;DHT22;20128;45.582;5.298;2022-09-28T18:52:09;16.80;80.50
33827;DHT22;20128;45.582;5.298;2022-09-28T18:54:35;16.80;80.30
33827;DHT22;20128;45.582;5.298;2022-09-28T18:57:00;16.80;80.20
33827;DHT22;20128;45.582;5.298;2022-09-28T18:59:26;16.90;80.10
33827;DHT22;20128;45.582;5.298;2022-09-28T19:01:52;16.90;79.90
33827;DHT22;20128;45.582;5.298;2022-09-28T19:04:17;16.90;79.70
33827;DHT22;20128;45.582;5.298;2022-09-28T19:06:45;16.90;79.80
33827;DHT22;20128;45.582;5.298;2022-09-28T19:09:18;16.90;79.60
33827;DHT22;20128;45.582;5.298;2022-09-28T19:11:45;16.80;79.70
33827;DHT22;20128;45.582;5.298;2022-09-28T19:14:10;16.80;80.00
33827;DHT22;20128;45.582;5.298;2022-09-28T19:16:39;16.80;80.20
33827;DHT22;20128;45.582;5.298;2022-09-28T19:19:05;16.80;80.20
33827;DHT22;20128;45.582;5.298;2022-09-28T19:21:31;16.80;80.20